Observation data for O'Donnell on 09/11/2019      Previous  Date  Next       Current Mesonet Observations  Soil Data  Daily Summary Page  Observations in Plain Language
KOES 110500Z 17007KT 24/17 A3008 RMK A01 T02430167  RH  066%=      5-min Rain = 0
KOES 110505Z 17006KT 24/17 A3008 RMK A01 T02420168  RH  067%=      5-min Rain = 0
KOES 110510Z 17007KT 24/17 A3008 RMK A01 T02400168  RH  067%=      5-min Rain = 0
KOES 110515Z 17007KT 24/17 A3009 RMK A01 T02400169  RH  068%=      5-min Rain = 0
KOES 110520Z 18007KT 24/17 A3009 RMK A01 T02390169  RH  068%=      5-min Rain = 0
KOES 110525Z 18008KT 24/17 A3009 RMK A01 T02390169  RH  068%=      5-min Rain = 0
KOES 110530Z 17008KT 24/17 A3009 RMK A01 T02380169  RH  068%=      5-min Rain = 0
KOES 110535Z 16008KT 24/17 A3009 RMK A01 T02380169  RH  068%=      5-min Rain = 0
KOES 110540Z 17007KT 24/17 A3009 RMK A01 T02370169  RH  069%=      5-min Rain = 0
KOES 110545Z 17008KT 24/17 A3009 RMK A01 T02370168  RH  069%=      5-min Rain = 0
KOES 110550Z 16007G13KT 24/17 A3009 RMK A01 T02370168  RH  069%=      5-min Rain = 0
KOES 110555Z 17008KT 24/17 A3009 RMK A01 T02370168  RH  069%=      5-min Rain = 0
KOES 110600Z 17009KT 24/17 A3009 RMK A01 T02360168  RH  069%=      5-min Rain = 0
KOES 110605Z 17009KT 24/17 A3009 RMK A01 T02360167  RH  069%=      5-min Rain = 0
KOES 110610Z 17008KT 24/17 A3009 RMK A01 T02350167  RH  069%=      5-min Rain = 0
KOES 110615Z 17008KT 23/17 A3009 RMK A01 T02340167  RH  069%=      5-min Rain = 0
KOES 110620Z 17008KT 23/17 A3009 RMK A01 T02340167  RH  069%=      5-min Rain = 0
KOES 110625Z 18009KT 23/17 A3009 RMK A01 T02340166  RH  069%=      5-min Rain = 0
KOES 110630Z 18009KT 23/17 A3009 RMK A01 T02330165  RH  069%=      5-min Rain = 0
KOES 110635Z 18009KT 23/17 A3009 RMK A01 T02330165  RH  069%=      5-min Rain = 0
KOES 110640Z 17009KT 23/17 A3009 RMK A01 T02320165  RH  069%=      5-min Rain = 0
KOES 110645Z 17009KT 23/17 A3009 RMK A01 T02320166  RH  070%=      5-min Rain = 0
KOES 110650Z 17008KT 23/17 A301 RMK A01 T02310166  RH  070%=      5-min Rain = 0
KOES 110655Z 16007KT 23/17 A301 RMK A01 T02290166  RH  071%=      5-min Rain = 0
KOES 110700Z 17006KT 23/17 A301 RMK A01 T02280167  RH  072%=      5-min Rain = 0
KOES 110705Z 17007KT 23/17 A301 RMK A01 T02270167  RH  072%=      5-min Rain = 0
KOES 110710Z 17007KT 23/17 A301 RMK A01 T02270167  RH  072%=      5-min Rain = 0
KOES 110715Z 16008KT 23/17 A301 RMK A01 T02270167  RH  072%=      5-min Rain = 0
KOES 110720Z 16008G13KT 23/17 A301 RMK A01 T02270168  RH  072%=      5-min Rain = 0
KOES 110725Z 17009KT 23/17 A301 RMK A01 T02260167  RH  073%=      5-min Rain = 0
KOES 110730Z 16009KT 23/17 A301 RMK A01 T02260167  RH  073%=      5-min Rain = 0
KOES 110735Z 17009KT 23/17 A301 RMK A01 T02260167  RH  073%=      5-min Rain = 0
KOES 110740Z 16009G14KT 23/17 A301 RMK A01 T02250167  RH  073%=      5-min Rain = 0
KOES 110745Z 16009KT 22/17 A3009 RMK A01 T02240167  RH  074%=      5-min Rain = 0
KOES 110750Z 16009KT 22/17 A3009 RMK A01 T02230167  RH  074%=      5-min Rain = 0
KOES 110755Z 16009KT 22/17 A3009 RMK A01 T02220167  RH  074%=      5-min Rain = 0
KOES 110800Z 16009G14KT 22/17 A3009 RMK A01 T02220167  RH  074%=      5-min Rain = 0
KOES 110805Z 16009KT 22/17 A3009 RMK A01 T02220167  RH  074%=      5-min Rain = 0
KOES 110810Z 17008KT 22/17 A3009 RMK A01 T02210167  RH  075%=      5-min Rain = 0
KOES 110815Z 17008KT 22/17 A3009 RMK A01 T02210167  RH  075%=      5-min Rain = 0
KOES 110820Z 17007KT 22/17 A3009 RMK A01 T02200167  RH  075%=      5-min Rain = 0
KOES 110825Z 17007KT 22/17 A3009 RMK A01 T02190167  RH  076%=      5-min Rain = 0
KOES 110830Z 17007KT 22/17 A3009 RMK A01 T02180167  RH  076%=      5-min Rain = 0
KOES 110835Z 17007KT 22/17 A3008 RMK A01 T02180167  RH  076%=      5-min Rain = 0
KOES 110840Z 17007KT 22/17 A3008 RMK A01 T02180167  RH  076%=      5-min Rain = 0
KOES 110845Z 16007KT 22/17 A3007 RMK A01 T02170167  RH  077%=      5-min Rain = 0
KOES 110850Z 16008KT 22/17 A3007 RMK A01 T02170166  RH  077%=      5-min Rain = 0
KOES 110855Z 16007KT 22/17 A3007 RMK A01 T02170166  RH  077%=      5-min Rain = 0
KOES 110900Z 16007KT 22/17 A3007 RMK A01 T02160166  RH  077%=      5-min Rain = 0
KOES 110905Z 17007KT 22/17 A3007 RMK A01 T02150166  RH  077%=      5-min Rain = 0
KOES 110910Z 16007KT 22/17 A3007 RMK A01 T02150166  RH  077%=      5-min Rain = 0
KOES 110915Z 17008KT 22/17 A3007 RMK A01 T02150165  RH  077%=      5-min Rain = 0
KOES 110920Z 17008KT 22/17 A3007 RMK A01 T02150165  RH  077%=      5-min Rain = 0
KOES 110925Z 17009KT 22/17 A3007 RMK A01 T02150165  RH  077%=      5-min Rain = 0
KOES 110930Z 17009KT 21/16 A3007 RMK A01 T02140164  RH  077%=      5-min Rain = 0
KOES 110935Z 17009KT 21/16 A3007 RMK A01 T02140164  RH  077%=      5-min Rain = 0
KOES 110940Z 17008KT 21/16 A3007 RMK A01 T02140164  RH  077%=      5-min Rain = 0
KOES 110945Z 16008KT 21/16 A3007 RMK A01 T02130163  RH  077%=      5-min Rain = 0
KOES 110950Z 17009KT 21/16 A3007 RMK A01 T02120163  RH  077%=      5-min Rain = 0
KOES 110955Z 17010KT 21/16 A3007 RMK A01 T02130162  RH  076%=      5-min Rain = 0
KOES 111000Z 17009KT 21/16 A3007 RMK A01 T02120162  RH  076%=      5-min Rain = 0
KOES 111005Z 17010KT 21/16 A3007 RMK A01 T02120161  RH  076%=      5-min Rain = 0
KOES 111010Z 17010G16KT 21/16 A3007 RMK A01 T02120162  RH  076%=      5-min Rain = 0
KOES 111015Z 18009KT 21/16 A3008 RMK A01 T02110161  RH  077%=      5-min Rain = 0
KOES 111020Z 17009KT 21/16 A3007 RMK A01 T02100162  RH  077%=      5-min Rain = 0
KOES 111025Z 17008KT 21/16 A3008 RMK A01 T02100162  RH  078%=      5-min Rain = 0
KOES 111030Z 17007KT 21/16 A3008 RMK A01 T02080162  RH  078%=      5-min Rain = 0
KOES 111035Z 17008KT 21/16 A3008 RMK A01 T02070162  RH  079%=      5-min Rain = 0
KOES 111040Z 18009KT 21/16 A3007 RMK A01 T02070162  RH  080%=      5-min Rain = 0
KOES 111045Z 18009KT 21/16 A3008 RMK A01 T02060163  RH  080%=      5-min Rain = 0
KOES 111050Z 17008KT 21/16 A3008 RMK A01 T02060163  RH  080%=      5-min Rain = 0
KOES 111055Z 17009KT 21/16 A3008 RMK A01 T02050163  RH  081%=      5-min Rain = 0
KOES 111100Z 17008KT 21/16 A3008 RMK A01 T02050163  RH  081%=      5-min Rain = 0
KOES 111105Z 17008KT 20/16 A3008 RMK A01 T02030163  RH  081%=      5-min Rain = 0
KOES 111110Z 17008KT 20/16 A3008 RMK A01 T02030163  RH  081%=      5-min Rain = 0
KOES 111115Z 17009KT 20/16 A3008 RMK A01 T02030163  RH  081%=      5-min Rain = 0
KOES 111120Z 17009KT 20/16 A3008 RMK A01 T02030163  RH  082%=      5-min Rain = 0
KOES 111125Z 16009KT 20/16 A3008 RMK A01 T02020162  RH  082%=      5-min Rain = 0
KOES 111130Z 16008KT 20/16 A3008 RMK A01 T02010162  RH  082%=      5-min Rain = 0
KOES 111135Z 16008KT 20/16 A3008 RMK A01 T02000162  RH  083%=      5-min Rain = 0
KOES 111140Z 16008G13KT 20/16 A3008 RMK A01 T02000162  RH  083%=      5-min Rain = 0
KOES 111145Z 16008KT 20/16 A3008 RMK A01 T02000162  RH  083%=      5-min Rain = 0
KOES 111150Z 16008KT 20/16 A3008 RMK A01 T02000162  RH  083%=      5-min Rain = 0
KOES 111155Z 16008KT 20/16 A3008 RMK A01 T01990162  RH  083%=      5-min Rain = 0
KOES 111200Z 16008KT 20/16 A3008 RMK A01 T01990162  RH  083%=      5-min Rain = 0
KOES 111205Z 16007KT 20/16 A3008 RMK A01 T01990162  RH  084%=      5-min Rain = 0
KOES 111210Z 17008KT 20/16 A3008 RMK A01 T01980163  RH  084%=      5-min Rain = 0
KOES 111215Z 17009KT 20/16 A3008 RMK A01 T01980163  RH  084%=      5-min Rain = 0
KOES 111220Z 17009KT 20/16 A3009 RMK A01 T01990163  RH  084%=      5-min Rain = 0
KOES 111225Z 17010G15KT 20/16 A3009 RMK A01 T02000163  RH  083%=      5-min Rain = 0
KOES 111230Z 16009G15KT 20/16 A3009 RMK A01 T02010164  RH  083%=      5-min Rain = 0
KOES 111235Z 17010G16KT 20/16 A3009 RMK A01 T02020164  RH  083%=      5-min Rain = 0
KOES 111240Z 17011G18KT 20/16 A3009 RMK A01 T02030164  RH  082%=      5-min Rain = 0
KOES 111245Z 17012G17KT 20/16 A3009 RMK A01 T02040164  RH  082%=      5-min Rain = 0
KOES 111250Z 17012G17KT 20/16 A3009 RMK A01 T02040164  RH  082%=      5-min Rain = 0
KOES 111255Z 17012G21KT 21/17 A3009 RMK A01 T02050165  RH  082%=      5-min Rain = 0
KOES 111300Z 17013G18KT 21/17 A3009 RMK A01 T02050166  RH  082%=      5-min Rain = 0
KOES 111305Z 18012G19KT 21/17 A301 RMK A01 T02050166  RH  082%=      5-min Rain = 0
KOES 111310Z 17011G16KT 21/17 A301 RMK A01 T02050166  RH  082%=      5-min Rain = 0
KOES 111315Z 16013G19KT 21/17 A301 RMK A01 T02050165  RH  082%=      5-min Rain = 0
KOES 111320Z 17013G18KT 21/17 A3011 RMK A01 T02050165  RH  082%=      5-min Rain = 0
KOES 111325Z 17013G19KT 21/17 A3011 RMK A01 T02050166  RH  082%=      5-min Rain = 0
KOES 111330Z 17008G14KT 21/17 A3011 RMK A01 T02060166  RH  082%=      5-min Rain = 0
KOES 111335Z 17012G21KT 21/17 A3011 RMK A01 T02070167  RH  082%=      5-min Rain = 0
KOES 111340Z 18013G20KT 21/17 A3011 RMK A01 T02070167  RH  082%=      5-min Rain = 0
KOES 111345Z 18013G19KT 21/17 A3012 RMK A01 T02070168  RH  082%=      5-min Rain = 0
KOES 111350Z 19011G16KT 21/17 A3012 RMK A01 T02080169  RH  082%=      5-min Rain = 0
KOES 111355Z 18010G16KT 21/17 A3012 RMK A01 T02090169  RH  082%=      5-min Rain = 0
KOES 111400Z 18012G17KT 21/17 A3012 RMK A01 T02090170  RH  082%=      5-min Rain = 0
KOES 111405Z 18012G18KT 21/17 A3012 RMK A01 T02100171  RH  082%=      5-min Rain = 0
KOES 111410Z 18011G18KT 21/17 A3013 RMK A01 T02110171  RH  082%=      5-min Rain = 0
KOES 111415Z 18011G16KT 21/17 A3013 RMK A01 T02110172  RH  083%=      5-min Rain = 0
KOES 111420Z 18012G17KT 21/17 A3013 RMK A01 T02110173  RH  083%=      5-min Rain = 0
KOES 111425Z 18011G19KT 21/17 A3013 RMK A01 T02120173  RH  082%=      5-min Rain = 0
KOES 111430Z 18011G16KT 21/17 A3013 RMK A01 T02140173  RH  082%=      5-min Rain = 0
KOES 111435Z 18011KT 21/17 A3013 RMK A01 T02140173  RH  082%=      5-min Rain = 0
KOES 111440Z 18011G16KT 22/17 A3013 RMK A01 T02150174  RH  081%=      5-min Rain = 0
KOES 111445Z 18009G16KT 22/17 A3013 RMK A01 T02180174  RH  080%=      5-min Rain = 0
KOES 111450Z 19010G16KT 22/17 A3013 RMK A01 T02190174  RH  080%=      5-min Rain = 0
KOES 111455Z 18010G16KT 22/18 A3013 RMK A01 T02200175  RH  080%=      5-min Rain = 0
KOES 111500Z 18009KT 22/18 A3013 RMK A01 T02220175  RH  079%=      5-min Rain = 0
KOES 111505Z 18009KT 22/18 A3013 RMK A01 T02220175  RH  079%=      5-min Rain = 0
KOES 111510Z 16009KT 22/18 A3013 RMK A01 T02230175  RH  078%=      5-min Rain = 0
KOES 111515Z 16009KT 22/18 A3013 RMK A01 T02230175  RH  078%=      5-min Rain = 0
KOES 111520Z 16009KT 22/18 A3013 RMK A01 T02240175  RH  078%=      5-min Rain = 0
KOES 111525Z 17010G16KT 23/18 A3013 RMK A01 T02260176  RH  077%=      5-min Rain = 0
KOES 111530Z 17010KT 23/18 A3013 RMK A01 T02260176  RH  077%=      5-min Rain = 0
KOES 111535Z 17008KT 23/18 A3013 RMK A01 T02290177  RH  076%=      5-min Rain = 0
KOES 111540Z 17010KT 23/18 A3013 RMK A01 T02310176  RH  075%=      5-min Rain = 0
KOES 111545Z 17011KT 23/18 A3013 RMK A01 T02300176  RH  076%=      5-min Rain = 0
KOES 111550Z 17009KT 23/18 A3013 RMK A01 T02330177  RH  075%=      5-min Rain = 0
KOES 111555Z 17009G14KT 24/18 A3013 RMK A01 T02350177  RH  074%=      5-min Rain = 0
KOES 111600Z 17010G15KT 24/18 A3013 RMK A01 T02350177  RH  074%=      5-min Rain = 0
KOES 111605Z 16009KT 24/18 A3013 RMK A01 T02350177  RH  074%=      5-min Rain = 0
KOES 111610Z 17008KT 24/18 A3013 RMK A01 T02380178  RH  073%=      5-min Rain = 0
KOES 111615Z 17010G15KT 24/18 A3013 RMK A01 T02390178  RH  072%=      5-min Rain = 0
KOES 111620Z 17010G16KT 24/18 A3013 RMK A01 T02360177  RH  073%=      5-min Rain = 0
KOES 111625Z 17008G14KT 24/18 A3013 RMK A01 T02410179  RH  072%=      5-min Rain = 0
KOES 111630Z 17010KT 25/18 A3012 RMK A01 T02480180  RH  069%=      5-min Rain = 0
KOES 111635Z 17011KT 25/18 A3013 RMK A01 T02530179  RH  067%=      5-min Rain = 0
KOES 111640Z 16011KT 25/18 A3013 RMK A01 T02520179  RH  067%=      5-min Rain = 0
KOES 111645Z 17010G15KT 26/18 A3012 RMK A01 T02600180  RH  065%=      5-min Rain = 0
KOES 111650Z 16009G15KT 26/18 A3012 RMK A01 T02600180  RH  065%=      5-min Rain = 0
KOES 111655Z 17010G15KT 26/18 A3012 RMK A01 T02610180  RH  064%=      5-min Rain = 0
KOES 111700Z 17011G16KT 26/18 A3012 RMK A01 T02610180  RH  064%=      5-min Rain = 0
KOES 111705Z 17012G18KT 26/18 A3012 RMK A01 T02610179  RH  064%=      5-min Rain = 0
KOES 111710Z 16012KT 27/18 A3012 RMK A01 T02650180  RH  063%=      5-min Rain = 0
KOES 111715Z 17012KT 27/18 A3012 RMK A01 T02680180  RH  062%=      5-min Rain = 0
KOES 111720Z 18011G17KT 27/18 A3011 RMK A01 T02670180  RH  062%=      5-min Rain = 0
KOES 111725Z 18012G20KT 27/18 A3011 RMK A01 T02670180  RH  062%=      5-min Rain = 0
KOES 111730Z 17012G19KT 27/18 A3011 RMK A01 T02680180  RH  061%=      5-min Rain = 0
KOES 111735Z 17013G18KT 27/18 A3011 RMK A01 T02690180  RH  061%=      5-min Rain = 0
KOES 111740Z 19013KT 27/18 A3011 RMK A01 T02700180  RH  061%=      5-min Rain = 0
KOES 111745Z 17012G19KT 28/18 A3011 RMK A01 T02750182  RH  060%=      5-min Rain = 0
KOES 111750Z 17010G15KT 28/18 A3011 RMK A01 T02780181  RH  059%=      5-min Rain = 0
KOES 111755Z 18010G15KT 28/18 A3011 RMK A01 T02790182  RH  058%=      5-min Rain = 0
KOES 111800Z 18013G19KT 28/18 A301 RMK A01 T02750179  RH  059%=      5-min Rain = 0
KOES 111805Z 17013G18KT 28/18 A301 RMK A01 T02780181  RH  059%=      5-min Rain = 0
KOES 111810Z 19013G18KT 28/18 A301 RMK A01 T02840181  RH  056%=      5-min Rain = 0
KOES 111815Z 17010G17KT 28/18 A301 RMK A01 T02820179  RH  057%=      5-min Rain = 0
KOES 111820Z 17012G17KT 28/18 A301 RMK A01 T02830180  RH  056%=      5-min Rain = 0
KOES 111825Z 16012G17KT 29/18 A3009 RMK A01 T02850180  RH  056%=      5-min Rain = 0
KOES 111830Z 16011G16KT 29/18 A3009 RMK A01 T02910181  RH  054%=      5-min Rain = 0
KOES 111835Z 18011G16KT 29/18 A3009 RMK A01 T02900179  RH  054%=      5-min Rain = 0
KOES 111840Z 18011G18KT 29/18 A3009 RMK A01 T02910181  RH  054%=      5-min Rain = 0
KOES 111845Z 17012G17KT 29/18 A3009 RMK A01 T02940180  RH  053%=      5-min Rain = 0
KOES 111850Z 18012G18KT 29/18 A3009 RMK A01 T02920180  RH  054%=      5-min Rain = 0
KOES 111855Z 18011KT 29/18 A3009 RMK A01 T02900180  RH  054%=      5-min Rain = 0
KOES 111900Z 17012G17KT 29/18 A3009 RMK A01 T02890180  RH  055%=      5-min Rain = 0
KOES 111905Z 19012G18KT 30/18 A3008 RMK A01 T02980180  RH  052%=      5-min Rain = 0
KOES 111910Z 18012G21KT 30/18 A3008 RMK A01 T02990179  RH  051%=      5-min Rain = 0
KOES 111915Z 17011G17KT 30/18 A3008 RMK A01 T02960179  RH  052%=      5-min Rain = 0
KOES 111920Z 15010G17KT 29/18 A3008 RMK A01 T02880179  RH  054%=      5-min Rain = 0
KOES 111925Z 17011G19KT 30/18 A3008 RMK A01 T03000180  RH  051%=      5-min Rain = 0
KOES 111930Z 16012KT 30/18 A3007 RMK A01 T03030180  RH  050%=      5-min Rain = 0
KOES 111935Z 18011G17KT 31/18 A3007 RMK A01 T03070181  RH  049%=      5-min Rain = 0
KOES 111940Z 17010G18KT 30/18 A3007 RMK A01 T03040179  RH  050%=      5-min Rain = 0
KOES 111945Z 18013G18KT 31/18 A3006 RMK A01 T03080179  RH  049%=      5-min Rain = 0
KOES 111950Z 18012G19KT 31/18 A3006 RMK A01 T03060179  RH  049%=      5-min Rain = 0
KOES 111955Z 17011G16KT 31/18 A3006 RMK A01 T03080178  RH  048%=      5-min Rain = 0
KOES 112000Z 18011G17KT 31/18 A3005 RMK A01 T03100177  RH  047%=      5-min Rain = 0
KOES 112005Z 18012G18KT 31/18 A3005 RMK A01 T03120178  RH  047%=      5-min Rain = 0
KOES 112010Z 18012G18KT 31/18 A3005 RMK A01 T03070177  RH  048%=      5-min Rain = 0
KOES 112015Z 18012G17KT 31/18 A3004 RMK A01 T03080177  RH  048%=      5-min Rain = 0
KOES 112020Z 17010G15KT 31/18 A3004 RMK A01 T03090178  RH  048%=      5-min Rain = 0
KOES 112025Z 18010G15KT 31/18 A3004 RMK A01 T03130178  RH  047%=      5-min Rain = 0
KOES 112030Z 17010G15KT 31/18 A3004 RMK A01 T03070175  RH  047%=      5-min Rain = 0
KOES 112035Z 18009G14KT 31/18 A3003 RMK A01 T03070177  RH  048%=      5-min Rain = 0
KOES 112040Z 18008G15KT 32/18 A3003 RMK A01 T03160177  RH  046%=      5-min Rain = 0
KOES 112045Z 19012G17KT 32/18 A3003 RMK A01 T03150175  RH  046%=      5-min Rain = 0
KOES 112050Z 16008G15KT 31/18 A3002 RMK A01 T03140175  RH  046%=      5-min Rain = 0
KOES 112055Z 16010KT 31/18 A3002 RMK A01 T03140177  RH  046%=      5-min Rain = 0
KOES 112100Z 15010KT 31/18 A3002 RMK A01 T03110175  RH  047%=      5-min Rain = 0
KOES 112105Z 17008G14KT 32/18 A3002 RMK A01 T03160175  RH  045%=      5-min Rain = 0
KOES 112110Z 15011KT 31/18 A3002 RMK A01 T03100175  RH  047%=      5-min Rain = 0
KOES 112115Z 15010G15KT 31/18 A3002 RMK A01 T03100175  RH  047%=      5-min Rain = 0
KOES 112120Z 16011G17KT 32/17 A3002 RMK A01 T03170173  RH  044%=      5-min Rain = 0
KOES 112125Z 18010KT 32/17 A3001 RMK A01 T03210172  RH  043%=      5-min Rain = 0
KOES 112130Z 18010G15KT 32/17 A3001 RMK A01 T03240173  RH  043%=      5-min Rain = 0
KOES 112135Z 15010KT 31/17 A3001 RMK A01 T03130172  RH  045%=      5-min Rain = 0
KOES 112140Z 14010G17KT 31/17 A3001 RMK A01 T03140172  RH  045%=      5-min Rain = 0
KOES 112145Z 13016G22KT 31/18 A3001 RMK A01 T03140176  RH  046%=      5-min Rain = 0
KOES 112150Z 13018G27KT 30/18 A3001 RMK A01 T02980179  RH  052%=      5-min Rain = 0
KOES 112155Z 14018G25KT 29/18 A3001 RMK A01 T02920182  RH  054%=      5-min Rain = 0
KOES 112200Z 13017G24KT 29/18 A3001 RMK A01 T02880184  RH  056%=      5-min Rain = 0
KOES 112205Z 14015G22KT 29/19 A3002 RMK A01 T02890185  RH  056%=      5-min Rain = 0
KOES 112210Z 13014G21KT 29/19 A3002 RMK A01 T02870186  RH  057%=      5-min Rain = 0
KOES 112215Z 14014G23KT 29/19 A3001 RMK A01 T02870187  RH  058%=      5-min Rain = 0
KOES 112220Z 14015G20KT 29/19 A3001 RMK A01 T02900185  RH  056%=      5-min Rain = 0
KOES 112225Z 13015G23KT 29/18 A3001 RMK A01 T02900184  RH  056%=      5-min Rain = 0
KOES 112230Z 15013G18KT 29/19 A3001 RMK A01 T02920186  RH  056%=      5-min Rain = 0
KOES 112235Z 15013G18KT 29/19 A30 RMK A01 T02930187  RH  056%=      5-min Rain = 0
KOES 112240Z 14014G19KT 29/19 A30 RMK A01 T02890187  RH  057%=      5-min Rain = 0
KOES 112245Z 14014G19KT 28/19 A30 RMK A01 T02830186  RH  059%=      5-min Rain = 0
KOES 112250Z 15015G22KT 28/18 A30 RMK A01 T02840184  RH  058%=      5-min Rain = 0
KOES 112255Z 16012G18KT 28/18 A3001 RMK A01 T02830181  RH  057%=      5-min Rain = 0
KOES 112300Z 16010KT 28/18 A3001 RMK A01 T02830181  RH  057%=      5-min Rain = 0
KOES 112305Z 16010KT 28/18 A3001 RMK A01 T02840181  RH  057%=      5-min Rain = 0
KOES 112310Z 15011G16KT 28/18 A3001 RMK A01 T02840181  RH  056%=      5-min Rain = 0
KOES 112315Z 16012KT 28/18 A3001 RMK A01 T02840182  RH  057%=      5-min Rain = 0
KOES 112320Z 16009G14KT 28/18 A3002 RMK A01 T02830183  RH  058%=      5-min Rain = 0
KOES 112325Z 16012G17KT 28/18 A3002 RMK A01 T02830182  RH  057%=      5-min Rain = 0
KOES 112330Z 16011KT 28/18 A3002 RMK A01 T02820181  RH  057%=      5-min Rain = 0
KOES 112335Z 16010G16KT 28/18 A3002 RMK A01 T02820182  RH  058%=      5-min Rain = 0
KOES 112340Z 16009G14KT 28/18 A3002 RMK A01 T02810182  RH  058%=      5-min Rain = 0
KOES 112345Z 15011G16KT 28/18 A3002 RMK A01 T02790183  RH  059%=      5-min Rain = 0
KOES 112350Z 15011G17KT 28/18 A3002 RMK A01 T02780182  RH  059%=      5-min Rain = 0
KOES 112355Z 15012KT 28/18 A3002 RMK A01 T02770181  RH  059%=      5-min Rain = 0
KOES 120000Z 15012G17KT 28/18 A3002 RMK A01 T02760181  RH  059%=      5-min Rain = 0
KOES 120005Z 15012G19KT 27/18 A3002 RMK A01 T02740181  RH  060%=      5-min Rain = 0
KOES 120010Z 15010G15KT 27/18 A3002 RMK A01 T02730182  RH  061%=      5-min Rain = 0
KOES 120015Z 15010G16KT 27/18 A3003 RMK A01 T02710179  RH  060%=      5-min Rain = 0
KOES 120020Z 15011G16KT 27/18 A3003 RMK A01 T02690178  RH  060%=      5-min Rain = 0
KOES 120025Z 16012G17KT 27/18 A3004 RMK A01 T02680179  RH  061%=      5-min Rain = 0
KOES 120030Z 16009G15KT 27/18 A3004 RMK A01 T02680180  RH  062%=      5-min Rain = 0
KOES 120035Z 16009KT 27/18 A3004 RMK A01 T02670181  RH  062%=      5-min Rain = 0
KOES 120040Z 16009KT 27/18 A3004 RMK A01 T02660181  RH  063%=      5-min Rain = 0
KOES 120045Z 16008G13KT 27/18 A3004 RMK A01 T02660182  RH  063%=      5-min Rain = 0
KOES 120050Z 16009G14KT 27/18 A3004 RMK A01 T02660182  RH  063%=      5-min Rain = 0
KOES 120055Z 16010G15KT 27/18 A3004 RMK A01 T02660181  RH  063%=      5-min Rain = 0
KOES 120100Z 16010KT 27/18 A3004 RMK A01 T02660181  RH  063%=      5-min Rain = 0
KOES 120105Z 16008KT 27/18 A3004 RMK A01 T02650181  RH  063%=      5-min Rain = 0
KOES 120110Z 16009KT 27/18 A3004 RMK A01 T02650181  RH  063%=      5-min Rain = 0
KOES 120115Z 15008KT 27/18 A3004 RMK A01 T02650182  RH  064%=      5-min Rain = 0
KOES 120120Z 15009G14KT 26/18 A3004 RMK A01 T02640183  RH  064%=      5-min Rain = 0
KOES 120125Z 15009KT 26/18 A3004 RMK A01 T02640184  RH  065%=      5-min Rain = 0
KOES 120130Z 15010KT 26/19 A3003 RMK A01 T02640185  RH  065%=      5-min Rain = 0
KOES 120135Z 15009KT 26/19 A3004 RMK A01 T02630185  RH  065%=      5-min Rain = 0
KOES 120140Z 15009KT 26/19 A3004 RMK A01 T02630185  RH  066%=      5-min Rain = 0
KOES 120145Z 15009KT 26/19 A3004 RMK A01 T02630185  RH  066%=      5-min Rain = 0
KOES 120150Z 15008KT 26/19 A3004 RMK A01 T02620185  RH  066%=      5-min Rain = 0
KOES 120155Z 19008KT 26/19 A3004 RMK A01 T02620185  RH  066%=      5-min Rain = 0
KOES 120200Z 19007KT 26/18 A3004 RMK A01 T02600182  RH  065%=      5-min Rain = 0
KOES 120205Z 17006KT 26/18 A3004 RMK A01 T02600184  RH  066%=      5-min Rain = 0
KOES 120210Z 18007KT 26/18 A3004 RMK A01 T02590182  RH  066%=      5-min Rain = 0
KOES 120215Z 18007KT 26/18 A3004 RMK A01 T02580180  RH  066%=      5-min Rain = 0
KOES 120220Z 17007KT 26/18 A3003 RMK A01 T02580181  RH  066%=      5-min Rain = 0
KOES 120225Z 17007G12KT 26/18 A3003 RMK A01 T02580182  RH  066%=      5-min Rain = 0
KOES 120230Z 17007KT 26/18 A3004 RMK A01 T02580182  RH  066%=      5-min Rain = 0
KOES 120235Z 16006KT 26/18 A3004 RMK A01 T02580182  RH  066%=      5-min Rain = 0
KOES 120240Z 16007KT 26/18 A3004 RMK A01 T02570182  RH  067%=      5-min Rain = 0
KOES 120245Z 15007KT 26/18 A3004 RMK A01 T02570182  RH  067%=      5-min Rain = 0
KOES 120250Z 15007KT 26/18 A3004 RMK A01 T02560183  RH  067%=      5-min Rain = 0
KOES 120255Z 14007KT 26/18 A3004 RMK A01 T02550183  RH  068%=      5-min Rain = 0
KOES 120300Z 15007KT 25/18 A3004 RMK A01 T02540183  RH  068%=      5-min Rain = 0
KOES 120305Z 15007KT 25/19 A3004 RMK A01 T02540185  RH  069%=      5-min Rain = 0
KOES 120310Z 16006KT 25/19 A3004 RMK A01 T02540186  RH  070%=      5-min Rain = 0
KOES 120315Z 15007KT 25/19 A3004 RMK A01 T02530186  RH  070%=      5-min Rain = 0
KOES 120320Z 16007KT 25/19 A3004 RMK A01 T02530186  RH  070%=      5-min Rain = 0
KOES 120325Z 15006KT 25/19 A3004 RMK A01 T02530186  RH  070%=      5-min Rain = 0
KOES 120330Z 16007KT 25/19 A3005 RMK A01 T02530186  RH  070%=      5-min Rain = 0
KOES 120335Z 15007KT 25/19 A3005 RMK A01 T02540186  RH  070%=      5-min Rain = 0
KOES 120340Z 15007KT 25/19 A3006 RMK A01 T02530185  RH  070%=      5-min Rain = 0
KOES 120345Z 15007KT 25/19 A3006 RMK A01 T02530185  RH  070%=      5-min Rain = 0
KOES 120350Z 15007KT 25/19 A3006 RMK A01 T02530185  RH  070%=      5-min Rain = 0
KOES 120355Z 15008KT 25/19 A3006 RMK A01 T02530185  RH  069%=      5-min Rain = 0
KOES 120400Z 15008KT 25/18 A3006 RMK A01 T02540184  RH  069%=      5-min Rain = 0
KOES 120405Z 15008KT 25/18 A3006 RMK A01 T02540183  RH  068%=      5-min Rain = 0
KOES 120410Z 15009KT 26/18 A3006 RMK A01 T02550183  RH  068%=      5-min Rain = 0
KOES 120415Z 15008KT 26/18 A3006 RMK A01 T02550183  RH  068%=      5-min Rain = 0
KOES 120420Z 16006KT 25/18 A3006 RMK A01 T02540183  RH  068%=      5-min Rain = 0
KOES 120425Z 16005KT 25/18 A3007 RMK A01 T02520182  RH  069%=      5-min Rain = 0
KOES 120430Z 15005KT 25/18 A3007 RMK A01 T02520182  RH  069%=      5-min Rain = 0
KOES 120435Z 15003KT 25/18 A3007 RMK A01 T02500183  RH  070%=      5-min Rain = 0
KOES 120440Z 15002KT 25/18 A3008 RMK A01 T02490183  RH  070%=      5-min Rain = 0
KOES 120445Z 16002KT 25/18 A3008 RMK A01 T02470183  RH  071%=      5-min Rain = 0
KOES 120450Z 15003KT 25/18 A3008 RMK A01 T02470182  RH  071%=      5-min Rain = 0
KOES 120455Z 14003KT 25/18 A3007 RMK A01 T02470183  RH  071%=      5-min Rain = 0

Page generated in 0.0281 seconds.